ADDS METAR Data

Data at: 0510 UTC 19 Jan 2018

METAR for:KBML (Berlin Muni, NH, US)
Text:KBML 190452Z AUTO 00000KT 10SM OVC031 M06/M08 A2985 RMK AO2 SLP127 T10611078 410441178
Temperature: -6.1°C ( 21°F)
Dewpoint: -7.8°C ( 18°F) [RH = 88%]
Pressure (altimeter):29.85 inches Hg (1010.9 mb) [Sea level pressure: 1012.7 mb]
Winds:calm
Visibility:10 or more sm (16+ km)
Ceiling:3100 feet AGL
Clouds: overcast cloud deck at 3100 feet AGL
QC Flag:automated observation with no human augmentation